Time;durP1;ratioP1;P1;durP2;ratioP2;P2;SDS_P1;SDS_P2;PMS_P1;PMS_P2;Temp;Humidity;BMP_temperature;BMP_pressure;BME280_temperature;BME280_humidity;BME280_pressure;Samples;Min_cycle;Max_cycle;Signal;HPM_P1;HPM_P2
2022/08/03 00:01:00;;;;;;;5.25;2.58;;;;;;;22.34;73.77;101555.13;4949143;28;20041;-65
2022/08/03 00:03:25;;;;;;;11.32;2.90;;;;;;;22.29;73.71;101554.31;4969132;28;20035;-65
2022/08/03 00:05:51;;;;;;;9.85;3.22;;;;;;;22.24;74.24;101556.09;4950828;28;20648;-64
2022/08/03 00:08:16;;;;;;;12.85;2.80;;;;;;;22.27;73.99;101552.59;4948082;28;20036;-64
2022/08/03 00:10:42;;;;;;;10.38;3.05;;;;;;;22.26;74.30;101553.44;4950010;28;20023;-64
2022/08/03 00:13:07;;;;;;;8.02;3.20;;;;;;;22.20;74.34;101549.13;4944696;28;20097;-64
2022/08/03 00:15:33;;;;;;;8.95;2.97;;;;;;;22.20;74.42;101554.38;4945011;28;20031;-65
2022/08/03 00:17:58;;;;;;;12.07;3.15;;;;;;;22.13;74.84;101552.69;4949110;28;20448;-64
2022/08/03 00:20:24;;;;;;;7.88;3.35;;;;;;;22.13;75.21;101553.56;4948053;28;20042;-64
2022/08/03 00:22:50;;;;;;;8.63;3.15;;;;;;;22.10;75.35;101555.34;4948878;28;20160;-65
2022/08/03 00:25:16;;;;;;;9.70;3.83;;;;;;;22.04;75.19;101551.00;4945976;28;20059;-64
2022/08/03 00:27:41;;;;;;;9.25;3.63;;;;;;;22.00;74.74;101541.44;4947240;29;20035;-66
2022/08/03 00:30:07;;;;;;;11.00;3.17;;;;;;;22.04;75.29;101551.00;4950033;28;20085;-64
2022/08/03 00:32:33;;;;;;;8.85;3.33;;;;;;;21.99;75.53;101541.44;4947932;28;20031;-65
2022/08/03 00:34:58;;;;;;;13.85;3.92;;;;;;;21.97;75.60;101535.38;4946416;28;20394;-65
2022/08/03 00:37:23;;;;;;;9.93;3.25;;;;;;;21.94;76.08;101541.47;4940336;28;20406;-64
2022/08/03 00:39:49;;;;;;;12.57;3.50;;;;;;;21.95;75.84;101537.97;4949754;28;20035;-65
2022/08/03 00:42:15;;;;;;;9.40;3.13;;;;;;;21.85;75.61;101542.44;4953657;28;20495;-64
2022/08/03 00:44:42;;;;;;;12.15;3.70;;;;;;;21.88;75.89;101542.41;4939713;28;20031;-64
2022/08/03 00:47:11;;;;;;;12.95;3.25;;;;;;;21.83;75.86;101541.56;4946862;28;20486;-64
2022/08/03 00:49:38;;;;;;;9.70;3.50;;;;;;;21.88;75.60;101541.53;4947202;28;20032;-64
2022/08/03 00:52:05;;;;;;;10.75;3.45;;;;;;;21.87;76.47;101545.91;4943344;29;20070;-63
2022/08/03 00:54:32;;;;;;;9.27;4.05;;;;;;;21.85;76.62;101534.59;4942463;28;20045;-65
2022/08/03 00:56:57;;;;;;;9.45;3.55;;;;;;;21.79;76.89;101534.63;4944479;28;20039;-66
2022/08/03 00:59:22;;;;;;;8.43;3.63;;;;;;;21.77;77.00;101528.50;4943839;29;20093;-64
2022/08/03 01:01:48;;;;;;;12.05;3.80;;;;;;;21.75;77.09;101529.41;4948397;28;20039;-66
2022/08/03 01:04:14;;;;;;;9.25;3.92;;;;;;;21.65;76.92;101520.75;4942959;28;20039;-67
2022/08/03 01:06:47;;;;;;;8.88;3.67;;;;;;;21.76;77.07;101528.53;4947820;28;20081;-65
2022/08/03 01:09:22;;;;;;;8.85;3.63;;;;;;;21.72;77.12;101525.09;4946182;28;20027;-65
2022/08/03 01:11:53;;;;;;;10.15;3.72;;;;;;;21.68;77.22;101518.13;4947451;28;20073;-65
2022/08/03 01:14:26;;;;;;;9.55;4.13;;;;;;;21.69;77.17;101525.97;4944786;28;20023;-65
2022/08/03 01:16:51;;;;;;;10.70;4.15;;;;;;;21.62;77.22;101524.28;4945328;28;20547;-65
2022/08/03 01:19:35;;;;;;;8.60;3.60;;;;;;;21.70;76.81;101513.75;4947756;28;20032;-65
2022/08/03 01:22:35;;;;;;;8.68;3.70;;;;;;;21.71;76.68;101518.09;4948475;28;20027;-65
2022/08/03 01:25:31;;;;;;;12.45;4.10;;;;;;;21.66;76.83;101512.91;4951365;28;20349;-65
2022/08/03 01:28:08;;;;;;;10.00;4.22;;;;;;;21.61;77.38;101524.28;4950539;29;20165;-65
2022/08/03 01:30:36;;;;;;;10.30;4.18;;;;;;;21.46;78.72;101512.16;4948760;28;20102;-65
2022/08/03 01:33:11;;;;;;;10.07;3.90;;;;;;;21.50;78.28;101515.63;4952621;28;20054;-65
2022/08/03 01:36:01;;;;;;;10.35;4.55;;;;;;;21.57;77.82;101527.81;4948592;28;20221;-64
2022/08/03 01:38:32;;;;;;;12.82;4.30;;;;;;;21.47;78.77;101520.88;4941544;29;20125;-65
2022/08/03 01:41:06;;;;;;;8.63;4.03;;;;;;;21.44;78.78;101519.16;4952765;28;20050;-65
2022/08/03 01:43:31;;;;;;;10.98;3.78;;;;;;;21.45;78.68;101512.19;4961687;28;20165;-65
2022/08/03 01:45:57;;;;;;;10.48;3.90;;;;;;;21.43;78.83;101514.81;4950023;28;20126;-65
2022/08/03 01:48:24;;;;;;;11.27;3.70;;;;;;;21.39;78.92;101506.09;4948884;28;20042;-65
2022/08/03 01:50:50;;;;;;;11.65;4.13;;;;;;;21.39;78.46;101511.34;4950530;28;20165;-66
2022/08/03 01:53:17;;;;;;;12.25;4.20;;;;;;;21.35;78.67;101504.38;4949995;28;20114;-65
2022/08/03 01:55:48;;;;;;;11.00;3.80;;;;;;;21.41;78.13;101508.69;4946265;28;20525;-67
2022/08/03 01:58:17;;;;;;;13.70;3.90;;;;;;;21.37;78.69;101504.41;4949299;28;20032;-65
2022/08/03 02:00:43;;;;;;;;;;;;;;;21.60;76.52;101510.34;4945281;28;20030;-65
2022/08/03 02:03:12;;;;;;;9.32;3.75;;;;;;;21.39;77.86;101506.09;4953066;28;19915;-64
2022/08/03 02:05:38;;;;;;;;;;;;;;;21.59;76.26;101511.19;4949349;29;20027;-64
2022/08/03 02:08:06;;;;;;;7.72;3.88;;;;;;;21.31;78.81;101505.28;4946656;29;20399;-65
2022/08/03 02:10:34;;;;;;;10.63;3.93;;;;;;;21.29;79.03;101503.53;4948419;28;20034;-65
2022/08/03 02:13:00;;;;;;;9.15;3.75;;;;;;;21.24;79.54;101511.41;4950395;28;20381;-64
2022/08/03 02:15:27;;;;;;;9.02;3.70;;;;;;;21.17;79.42;101509.69;4949501;28;20035;-64
2022/08/03 02:17:55;;;;;;;13.50;4.00;;;;;;;21.17;79.60;101509.69;4949938;28;20031;-64
2022/08/03 02:20:20;;;;;;;11.85;4.03;;;;;;;21.19;79.30;101501.84;4947475;28;20031;-64
2022/08/03 02:22:46;;;;;;;10.98;4.07;;;;;;;21.10;79.98;101502.75;4947239;28;20035;-65
2022/08/03 02:25:14;;;;;;;10.10;4.15;;;;;;;21.13;79.74;101497.53;4949827;28;20057;-64
2022/08/03 02:27:55;;;;;;;9.85;4.07;;;;;;;21.13;79.87;101505.38;4948863;28;20035;-64
2022/08/03 02:30:25;;;;;;;14.27;3.97;;;;;;;21.10;79.65;101498.38;4946386;28;20394;-64
2022/08/03 02:32:54;;;;;;;12.57;3.85;;;;;;;21.09;79.75;101498.41;4946999;28;20063;-65
2022/08/03 02:35:22;;;;;;;;;;;;;;;21.31;77.47;101496.59;4950249;28;20093;-65
2022/08/03 02:37:54;;;;;;;10.82;4.05;;;;;;;21.11;78.88;101489.69;4949464;28;20146;-65
2022/08/03 02:40:23;;;;;;;11.02;3.70;;;;;;;21.11;79.37;101497.53;4942770;28;20027;-65
2022/08/03 02:42:53;;;;;;;11.15;3.85;;;;;;;21.07;79.57;101490.56;4950875;28;20046;-65
2022/08/03 02:45:19;;;;;;;11.23;4.00;;;;;;;20.97;79.83;101494.09;4949654;29;20466;-63
2022/08/03 02:47:47;;;;;;;10.43;3.70;;;;;;;20.87;80.06;101487.19;4949408;28;20129;-65
2022/08/03 02:50:15;;;;;;;8.95;3.65;;;;;;;20.88;80.08;101492.41;4949127;28;20055;-65
2022/08/03 02:52:41;;;;;;;10.27;3.67;;;;;;;20.88;80.59;101487.19;4948284;29;20038;-64
2022/08/03 02:55:09;;;;;;;16.85;4.32;;;;;;;20.88;80.47;101491.53;4948917;28;20489;-66
2022/08/03 02:57:36;;;;;;;10.35;3.60;;;;;;;20.92;80.53;101495.00;4946955;28;20032;-66
2022/08/03 03:00:02;;;;;;;15.43;4.03;;;;;;;20.89;80.43;101491.53;4931429;28;20226;-65
2022/08/03 03:02:29;;;;;;;10.57;3.63;;;;;;;20.84;80.97;101490.69;4948905;28;20122;-65
2022/08/03 03:04:55;;;;;;;11.02;3.55;;;;;;;20.84;80.80;101493.28;4944461;28;20035;-65
2022/08/03 03:07:21;;;;;;;10.25;3.50;;;;;;;20.81;80.81;101489.81;4950425;28;20551;-67
2022/08/03 03:09:47;;;;;;;13.07;3.97;;;;;;;20.73;80.45;101487.22;4947816;28;20039;-65
2022/08/03 03:12:14;;;;;;;14.20;4.30;;;;;;;20.76;80.55;101492.47;4949715;28;20055;-64
2022/08/03 03:14:40;;;;;;;12.52;4.10;;;;;;;20.75;80.48;101484.59;4948808;28;20039;-64
2022/08/03 03:17:05;;;;;;;9.93;3.65;;;;;;;20.73;80.63;101487.22;4951769;28;20042;-64
2022/08/03 03:19:32;;;;;;;7.97;3.40;;;;;;;20.69;80.85;101488.16;4947043;28;20492;-64
2022/08/03 03:22:01;;;;;;;14.82;3.40;;;;;;;20.74;80.45;101488.97;4950642;28;20035;-65
2022/08/03 03:24:28;;;;;;;8.63;3.70;;;;;;;20.67;80.29;101489.00;4947103;28;20059;-66
2022/08/03 03:26:54;;;;;;;8.93;3.60;;;;;;;20.69;80.80;101490.75;4948834;29;20061;-65
2022/08/03 03:29:20;;;;;;;9.93;3.40;;;;;;;20.61;80.74;101488.16;4948871;28;20059;-65
2022/08/03 03:31:46;;;;;;;9.30;3.70;;;;;;;20.66;80.53;101488.13;4950559;29;20117;-65
2022/08/03 03:34:12;;;;;;;11.85;4.00;;;;;;;20.66;80.59;101482.91;4948913;28;20037;-64
2022/08/03 03:36:38;;;;;;;13.90;3.38;;;;;;;20.61;80.37;101488.16;4948702;28;20123;-65
2022/08/03 03:39:03;;;;;;;10.85;3.58;;;;;;;20.61;80.51;101485.53;4949693;28;20015;-65
2022/08/03 03:41:29;;;;;;;9.88;3.92;;;;;;;20.61;80.38;101487.28;4948303;28;20062;-65
2022/08/03 03:43:54;;;;;;;6.95;3.22;;;;;;;20.60;80.45;101482.94;4946436;28;20062;-63
2022/08/03 03:46:20;;;;;;;9.55;3.95;;;;;;;20.54;80.60;101485.56;4946886;28;20039;-65
2022/08/03 03:48:45;;;;;;;7.78;3.50;;;;;;;20.56;80.46;101478.59;4944060;29;20031;-64
2022/08/03 03:51:11;;;;;;;10.77;3.63;;;;;;;20.52;79.98;101480.34;4949497;28;20048;-64
2022/08/03 03:53:37;;;;;;;8.98;3.88;;;;;;;20.52;80.42;101480.34;4949126;29;20533;-64
2022/08/03 03:56:02;;;;;;;11.10;3.70;;;;;;;20.48;80.19;101482.97;4948575;28;20035;-65
2022/08/03 03:58:29;;;;;;;10.27;3.97;;;;;;;20.50;80.40;101478.59;4950195;28;20043;-64
2022/08/03 04:00:54;;;;;;;14.05;3.72;;;;;;;20.47;80.43;101478.63;4947609;29;20038;-65
2022/08/03 04:03:20;;;;;;;9.18;3.72;;;;;;;20.48;80.60;101473.38;4949915;28;20039;-65
2022/08/03 04:11:42;;;;;;;11.13;3.90;;;;;;;20.43;80.80;101476.84;4947763;28;20053;-65
2022/08/03 04:14:15;;;;;;;12.15;4.05;;;;;;;20.39;80.77;101475.16;4951241;28;20043;-65
2022/08/03 04:16:45;;;;;;;12.65;3.80;;;;;;;20.40;80.63;101492.56;4947394;29;20118;-65
2022/08/03 04:19:18;;;;;;;9.93;3.53;;;;;;;20.34;81.42;101488.22;4944522;29;20042;-63
2022/08/03 04:21:48;;;;;;;13.15;3.70;;;;;;;20.31;81.14;101490.81;4947816;28;20065;-64
2022/08/03 04:24:14;;;;;;;11.85;3.88;;;;;;;20.26;81.31;101485.63;4948144;28;20048;-64
2022/08/03 04:26:42;;;;;;;14.65;4.10;;;;;;;20.25;81.56;101483.84;4946270;28;20077;-65
2022/08/03 04:29:10;;;;;;;11.73;3.85;;;;;;;20.29;81.06;101489.97;4942473;29;20035;-64
2022/08/03 04:31:37;;;;;;;12.70;3.63;;;;;;;20.27;81.05;101487.34;4946111;28;20118;-65
2022/08/03 04:34:03;;;;;;;8.80;3.75;;;;;;;20.24;81.11;101486.47;4947638;28;20035;-65
2022/08/03 04:36:32;;;;;;;9.05;3.95;;;;;;;20.26;81.60;101485.63;4943748;28;20035;-64
2022/08/03 04:39:15;;;;;;;10.00;3.70;;;;;;;20.32;80.86;101489.94;4948500;29;20039;-64
2022/08/03 04:41:43;;;;;;;6.55;3.55;;;;;;;20.24;81.75;101487.34;4947215;29;20027;-65
2022/08/03 04:44:09;;;;;;;11.55;3.53;;;;;;;20.25;81.70;101491.69;4953639;28;20149;-65
2022/08/03 04:46:37;;;;;;;11.98;3.75;;;;;;;20.24;81.79;101489.97;4949434;28;20028;-65
2022/08/03 04:49:04;;;;;;;13.37;3.73;;;;;;;20.21;81.81;101500.44;4953353;28;20038;-64
2022/08/03 04:51:30;;;;;;;9.98;4.18;;;;;;;20.23;81.46;101497.81;4953582;28;20027;-65
2022/08/03 04:53:56;;;;;;;8.80;3.60;;;;;;;20.23;81.11;101501.28;4951113;28;20038;-65
2022/08/03 04:56:21;;;;;;;12.30;3.67;;;;;;;20.24;81.20;101508.25;4952934;28;20031;-65
2022/08/03 04:58:47;;;;;;;7.57;3.55;;;;;;;20.26;81.20;101506.50;4953480;28;20075;-65
2022/08/03 05:01:12;;;;;;;9.10;3.30;;;;;;;20.28;81.06;101512.59;4952561;28;20031;-65
2022/08/03 05:03:37;;;;;;;10.50;3.95;;;;;;;20.30;81.16;101512.59;4950035;28;20118;-67
2022/08/03 05:06:03;;;;;;;7.95;3.42;;;;;;;20.28;80.94;101514.34;4948000;28;20027;-66
2022/08/03 05:08:29;;;;;;;8.93;3.45;;;;;;;20.30;81.03;101507.34;4950839;28;20027;-64
2022/08/03 05:10:55;;;;;;;10.85;3.33;;;;;;;20.32;81.06;101518.66;4953156;28;20074;-66
2022/08/03 05:13:20;;;;;;;9.45;3.40;;;;;;;20.29;81.23;101510.84;4955490;28;20035;-64
2022/08/03 05:15:46;;;;;;;9.40;3.30;;;;;;;20.31;81.19;101515.19;4956729;28;20042;-65
2022/08/03 05:18:11;;;;;;;10.65;3.50;;;;;;;20.34;81.31;101520.41;4949909;28;20035;-65
2022/08/03 05:20:37;;;;;;;16.58;3.45;;;;;;;20.39;81.48;101527.38;4951573;28;20058;-64
2022/08/03 05:23:03;;;;;;;11.45;3.80;;;;;;;20.40;80.91;101529.13;4953284;28;20035;-65
2022/08/03 05:25:29;;;;;;;11.93;3.30;;;;;;;20.44;80.38;101521.25;4953587;28;20051;-65
2022/08/03 05:27:55;;;;;;;9.85;3.10;;;;;;;20.46;80.86;101523.91;4947477;28;20046;-65
2022/08/03 05:30:20;;;;;;;10.93;3.80;;;;;;;20.49;80.44;101518.66;4951088;28;20035;-65
2022/08/03 05:32:46;;;;;;;11.63;3.47;;;;;;;20.53;80.42;101528.25;4948480;28;20039;-66
2022/08/03 05:35:11;;;;;;;9.48;3.05;;;;;;;20.58;80.23;101529.97;4949930;28;20076;-65
2022/08/03 05:37:36;;;;;;;12.38;3.75;;;;;;;20.57;80.89;101525.63;4952354;28;20023;-64
2022/08/03 05:40:03;;;;;;;11.52;3.35;;;;;;;20.63;81.28;101540.44;4951949;28;20053;-65
2022/08/03 05:42:29;;;;;;;11.32;3.50;;;;;;;20.68;80.82;101530.81;4949451;29;20019;-65
2022/08/03 05:44:54;;;;;;;10.13;3.30;;;;;;;20.70;80.68;101534.31;4956038;28;20158;-64
2022/08/03 05:47:19;;;;;;;9.70;3.25;;;;;;;20.72;80.90;101529.94;4948578;28;20126;-65
2022/08/03 05:49:45;;;;;;;10.65;3.35;;;;;;;20.75;80.14;101535.16;4951055;28;20039;-65
2022/08/03 05:52:10;;;;;;;12.50;3.75;;;;;;;20.79;80.01;101530.78;4948740;28;20042;-65
2022/08/03 05:54:35;;;;;;;10.23;3.50;;;;;;;20.83;79.93;101538.59;4952849;28;20049;-64
2022/08/03 05:57:01;;;;;;;11.35;3.28;;;;;;;20.85;79.91;101529.00;4950486;28;20047;-64
2022/08/03 05:59:26;;;;;;;10.32;3.03;;;;;;;20.92;80.17;101534.22;4951460;28;20122;-65
2022/08/03 06:01:52;;;;;;;13.45;3.22;;;;;;;20.95;79.54;101531.59;4951270;28;20038;-64
2022/08/03 06:04:17;;;;;;;10.25;2.72;;;;;;;20.99;79.43;101530.69;4953230;28;20034;-65
2022/08/03 06:06:42;;;;;;;13.65;2.88;;;;;;;21.00;79.03;101535.94;4948737;28;20097;-65
2022/08/03 06:09:12;;;;;;;6.53;2.53;;;;;;;21.09;79.75;101532.41;4949947;28;20066;-65
2022/08/03 06:11:38;;;;;;;12.35;2.55;;;;;;;21.12;78.48;101533.25;4953848;28;20031;-64
2022/08/03 06:14:03;;;;;;;8.55;2.33;;;;;;;21.21;78.59;101534.94;4951019;28;20035;-66
2022/08/03 06:16:28;;;;;;;8.98;2.38;;;;;;;21.34;78.42;101531.41;4948695;28;20485;-65
2022/08/03 06:18:54;;;;;;;14.60;2.80;;;;;;;21.36;77.97;101531.44;4945468;28;20068;-65
2022/08/03 06:21:19;;;;;;;10.68;2.35;;;;;;;21.45;76.69;101531.38;4948497;28;20059;-65
2022/08/03 06:23:46;;;;;;;12.75;3.03;;;;;;;21.47;76.58;101532.22;4951462;29;20039;-65
2022/08/03 06:26:12;;;;;;;12.25;2.38;;;;;;;21.56;76.10;101536.53;4947952;29;20093;-65
2022/08/03 06:28:37;;;;;;;13.82;2.60;;;;;;;21.63;75.72;101533.84;4951692;28;20448;-65
2022/08/03 06:31:03;;;;;;;10.48;2.25;;;;;;;21.70;74.84;101532.06;4950322;28;20023;-66
2022/08/03 06:33:29;;;;;;;16.30;2.70;;;;;;;21.74;75.54;101539.03;4944492;28;20127;-67
2022/08/03 06:35:54;;;;;;;9.50;2.22;;;;;;;21.78;75.42;101545.97;4950795;28;20032;-65
2022/08/03 06:38:20;;;;;;;9.30;2.20;;;;;;;21.85;75.41;101544.19;4955353;28;20382;-65
2022/08/03 06:40:45;;;;;;;14.80;2.42;;;;;;;21.88;74.66;101534.53;4948595;28;21297;-65
2022/08/03 06:43:10;;;;;;;11.07;2.40;;;;;;;22.05;74.23;101544.88;4950025;28;20081;-65
2022/08/03 06:45:36;;;;;;;10.45;2.60;;;;;;;22.03;73.93;101537.94;4951977;28;20066;-65
2022/08/03 06:48:04;;;;;;;12.27;2.38;;;;;;;22.11;74.04;101549.22;4949433;29;20054;-65
2022/08/03 06:50:30;;;;;;;9.57;2.50;;;;;;;22.15;73.60;101543.09;4950849;28;20035;-65
2022/08/03 06:52:56;;;;;;;7.25;2.10;;;;;;;22.35;73.38;101545.53;4944834;28;20543;-65
2022/08/03 06:55:21;;;;;;;7.55;2.33;;;;;;;22.32;73.16;101549.03;4950559;29;20114;-66
2022/08/03 06:57:47;;;;;;;12.55;2.30;;;;;;;22.46;72.03;101541.91;4947433;28;20043;-65
2022/08/03 07:00:13;;;;;;;13.15;2.40;;;;;;;22.48;71.92;101548.00;4950526;28;20071;-66
2022/08/03 07:02:39;;;;;;;12.48;2.65;;;;;;;22.63;72.10;101548.72;4958421;28;20384;-66
2022/08/03 07:05:05;;;;;;;9.50;2.45;;;;;;;22.67;71.89;101550.41;4946376;28;20040;-65
2022/08/03 07:07:31;;;;;;;12.00;2.85;;;;;;;22.70;72.04;101548.66;4950127;28;20038;-66
2022/08/03 07:09:56;;;;;;;9.20;2.47;;;;;;;22.84;70.68;101543.22;4949493;28;20015;-66
2022/08/03 07:12:22;;;;;;;10.23;2.47;;;;;;;22.84;70.32;101552.84;4949034;28;20063;-66
2022/08/03 07:14:47;;;;;;;11.43;2.72;;;;;;;22.90;69.70;101561.56;4948021;28;20058;-67
2022/08/03 07:17:12;;;;;;;11.93;2.42;;;;;;;22.92;70.46;101556.28;4949721;28;20181;-66
2022/08/03 07:19:38;;;;;;;14.50;2.63;;;;;;;23.02;69.35;101564.03;4945662;28;20081;-65
2022/08/03 07:22:04;;;;;;;7.60;2.30;;;;;;;23.12;69.89;101569.16;4950871;28;20398;-65
2022/08/03 07:24:29;;;;;;;13.75;2.53;;;;;;;23.20;69.96;101564.69;4948141;28;20055;-66
2022/08/03 07:26:54;;;;;;;11.95;2.20;;;;;;;23.31;68.92;101562.78;4951272;28;20416;-66
2022/08/03 07:29:20;;;;;;;9.65;2.28;;;;;;;23.33;69.17;101562.75;4942984;28;20031;-66
2022/08/03 07:31:45;;;;;;;15.02;2.63;;;;;;;23.44;69.30;101572.22;4950107;28;20049;-66
2022/08/03 07:34:11;;;;;;;12.43;2.35;;;;;;;23.51;69.26;101563.38;4949296;28;20031;-66
2022/08/03 07:36:36;;;;;;;9.63;2.13;;;;;;;23.53;68.69;101572.06;4950865;28;20024;-66
2022/08/03 07:39:02;;;;;;;14.73;2.35;;;;;;;23.55;67.43;101566.81;4947824;29;20063;-66
2022/08/03 07:41:27;;;;;;;13.02;2.50;;;;;;;23.62;68.52;101565.88;4950894;28;20027;-66
2022/08/03 07:43:53;;;;;;;14.45;2.58;;;;;;;23.75;67.95;101564.78;4947692;29;20031;-66
2022/08/03 07:46:18;;;;;;;12.05;2.08;;;;;;;23.79;69.05;101570.88;4948782;28;20788;-66
2022/08/03 07:48:43;;;;;;;9.23;2.08;;;;;;;23.89;68.64;101569.81;4950529;28;20039;-66
2022/08/03 07:51:09;;;;;;;15.13;2.33;;;;;;;23.98;67.29;101568.81;4948613;28;20123;-66
2022/08/03 07:53:34;;;;;;;12.98;2.08;;;;;;;24.05;66.86;101571.31;4944577;28;20069;-66
2022/08/03 07:55:59;;;;;;;12.05;2.50;;;;;;;24.07;67.53;101561.63;4944336;28;20086;-66
2022/08/03 07:58:25;;;;;;;13.73;2.22;;;;;;;24.14;67.10;101556.28;4940163;28;20505;-67
2022/08/03 08:00:51;;;;;;;8.20;2.30;;;;;;;24.17;66.90;101569.38;4946788;28;20031;-66
2022/08/03 08:03:17;;;;;;;8.05;1.95;;;;;;;24.19;67.50;101557.06;4948423;28;20102;-66
2022/08/03 08:05:43;;;;;;;11.77;2.55;;;;;;;24.30;67.00;101555.13;4951638;28;20054;-65
2022/08/03 08:08:09;;;;;;;15.43;2.42;;;;;;;24.43;66.33;101550.56;4943219;28;20467;-65
2022/08/03 08:10:35;;;;;;;10.82;2.30;;;;;;;24.49;66.43;101553.94;4944398;28;20084;-66
2022/08/03 08:13:01;;;;;;;8.75;2.03;;;;;;;24.52;64.39;101558.28;4954843;28;20031;-65
2022/08/03 08:15:27;;;;;;;11.73;2.22;;;;;;;24.54;64.04;101559.97;4947665;28;20162;-66
2022/08/03 08:17:55;;;;;;;13.45;2.30;;;;;;;24.57;64.46;101559.94;4951413;28;20114;-65
2022/08/03 08:20:23;;;;;;;11.88;2.63;;;;;;;24.59;64.25;101559.88;4946738;28;20114;-66
2022/08/03 08:22:49;;;;;;;11.90;2.53;;;;;;;24.73;64.73;101565.75;4947418;28;20047;-65
2022/08/03 08:25:15;;;;;;;9.68;1.92;;;;;;;24.81;65.14;101561.22;4949816;28;20391;-65
2022/08/03 08:27:45;;;;;;;13.18;2.60;;;;;;;24.94;64.09;101559.19;4949681;28;20394;-65
2022/08/03 08:30:14;;;;;;;13.13;2.10;;;;;;;24.90;63.44;101554.03;4949866;28;20038;-65
2022/08/03 08:32:39;;;;;;;11.18;2.47;;;;;;;24.99;63.08;101559.94;4951117;28;20073;-65
2022/08/03 08:35:06;;;;;;;14.27;2.10;;;;;;;25.07;62.98;101554.59;4949391;28;20112;-67
2022/08/03 08:37:32;;;;;;;11.95;2.20;;;;;;;25.01;62.77;101547.66;4949946;29;20181;-66
2022/08/03 08:39:57;;;;;;;14.35;2.15;;;;;;;25.17;62.17;101560.50;4944345;28;20091;-66
2022/08/03 08:42:23;;;;;;;16.77;2.78;;;;;;;25.23;62.16;101553.34;4948100;28;20032;-66
2022/08/03 08:44:49;;;;;;;11.40;2.40;;;;;;;25.27;61.43;101547.09;4944934;28;20027;-66
2022/08/03 08:47:16;;;;;;;13.70;2.33;;;;;;;25.29;61.59;101554.97;4944379;28;20122;-66
2022/08/03 08:49:41;;;;;;;17.88;2.60;;;;;;;25.30;61.58;101551.44;4949619;28;20027;-67
2022/08/03 08:52:07;;;;;;;12.07;2.30;;;;;;;25.33;61.07;101554.00;4949613;28;20425;-67
2022/08/03 08:54:35;;;;;;;13.02;2.38;;;;;;;25.48;60.55;101556.31;4949777;28;20132;-65
2022/08/03 08:57:03;;;;;;;15.82;2.10;;;;;;;25.47;59.22;101561.59;4949694;29;20053;-65
2022/08/03 08:59:32;;;;;;;16.75;2.47;;;;;;;25.48;59.14;101556.31;4944086;28;20123;-65
2022/08/03 09:01:58;;;;;;;10.70;2.28;;;;;;;25.62;59.11;101548.94;4949732;28;20037;-66
2022/08/03 09:04:23;;;;;;;15.95;2.50;;;;;;;25.66;59.04;101547.09;4953626;28;20019;-65
2022/08/03 09:06:49;;;;;;;14.90;2.70;;;;;;;25.74;58.21;101544.31;4949531;28;20414;-65
2022/08/03 09:09:15;;;;;;;11.98;2.17;;;;;;;25.79;58.35;101548.59;4947037;28;20479;-65
2022/08/03 09:11:43;;;;;;;14.48;2.38;;;;;;;25.84;58.47;101551.09;4950467;28;20035;-66
2022/08/03 09:14:10;;;;;;;13.80;2.33;;;;;;;25.86;58.42;101550.16;4948294;28;20039;-66
2022/08/03 09:16:35;;;;;;;11.07;1.83;;;;;;;25.97;58.40;101552.53;4949806;28;20036;-66
2022/08/03 09:19:12;;;;;;;10.93;2.15;;;;;;;26.00;59.12;101556.84;4945996;28;20050;-66
2022/08/03 09:21:38;;;;;;;15.13;2.45;;;;;;;25.99;57.91;101556.00;4942705;29;20030;-66
2022/08/03 09:24:05;;;;;;;11.15;2.10;;;;;;;26.11;58.73;101553.03;4945440;28;20062;-66
2022/08/03 09:26:35;;;;;;;12.48;2.47;;;;;;;26.18;58.93;101553.75;4948647;28;20036;-67
2022/08/03 09:29:04;;;;;;;16.65;2.58;;;;;;;26.23;58.66;101548.38;4949166;28;20027;-67
2022/08/03 09:31:39;;;;;;;8.63;1.85;;;;;;;26.26;59.17;101554.41;4945090;28;20101;-66
2022/08/03 09:34:10;;;;;;;14.13;2.38;;;;;;;26.31;58.42;101555.16;4950544;28;20031;-66
2022/08/03 09:36:45;;;;;;;16.85;2.08;;;;;;;26.34;58.12;101546.31;4946435;29;20019;-67
2022/08/03 09:39:24;;;;;;;17.95;2.60;;;;;;;26.44;59.07;101550.44;4950595;28;20023;-66
2022/08/03 09:42:13;;;;;;;13.27;2.30;;;;;;;26.51;58.75;101548.50;4948835;29;20042;-66
2022/08/03 09:44:41;;;;;;;13.70;2.50;;;;;;;26.56;57.43;101552.75;4948662;29;20023;-66
2022/08/03 09:47:11;;;;;;;18.80;2.90;;;;;;;26.63;57.86;101549.03;4951485;28;20046;-67
2022/08/03 09:49:38;;;;;;;13.90;2.47;;;;;;;26.67;58.21;101550.69;4951559;28;20065;-66
2022/08/03 09:52:17;;;;;;;14.70;2.72;;;;;;;26.72;58.15;101546.16;4950299;28;20039;-67
2022/08/03 09:54:49;;;;;;;19.60;2.58;;;;;;;26.78;56.96;101539.84;4951728;28;20035;-66
2022/08/03 09:57:22;;;;;;;16.10;2.60;;;;;;;26.79;56.60;101545.97;4950242;28;20042;-67
2022/08/03 09:59:49;;;;;;;16.73;2.67;;;;;;;26.85;55.73;101551.06;4951876;28;20406;-66
2022/08/03 10:02:25;;;;;;;17.73;2.60;;;;;;;26.91;56.32;101550.91;4950975;28;20046;-67
2022/08/03 10:04:52;;;;;;;19.60;2.75;;;;;;;26.96;56.39;101544.56;4950305;28;20015;-66
2022/08/03 10:07:22;;;;;;;13.73;2.70;;;;;;;26.97;55.65;101550.72;4951797;28;20024;-66
2022/08/03 10:09:59;;;;;;;12.43;2.40;;;;;;;27.02;55.61;101551.47;4951123;28;20031;-67
2022/08/03 10:12:25;;;;;;;20.73;2.88;;;;;;;27.08;55.38;101540.75;4948490;28;20027;-66
2022/08/03 10:14:52;;;;;;;15.60;2.95;;;;;;;27.13;55.33;101548.53;4949396;29;20131;-68
2022/08/03 10:17:18;;;;;;;16.23;2.83;;;;;;;27.18;54.60;101539.56;4947790;28;20039;-70
2022/08/03 10:19:44;;;;;;;22.15;3.05;;;;;;;27.27;54.73;101546.34;4946879;28;20023;-66
2022/08/03 10:22:17;;;;;;;19.88;3.22;;;;;;;27.29;55.16;101547.13;4954386;28;20032;-67
2022/08/03 10:24:51;;;;;;;15.02;2.65;;;;;;;27.36;55.18;101542.53;4951060;29;20043;-67
2022/08/03 10:27:18;;;;;;;16.80;3.00;;;;;;;27.48;53.17;101547.44;4950988;28;20043;-66
2022/08/03 10:29:49;;;;;;;16.20;2.53;;;;;;;27.45;53.56;101542.25;4951910;28;20502;-67
2022/08/03 10:32:47;;;;;;;17.95;3.05;;;;;;;27.52;53.32;101534.09;4952006;28;20054;-66
2022/08/03 10:35:14;;;;;;;15.48;2.88;;;;;;;27.58;51.78;101540.09;4948943;28;20038;-67
2022/08/03 10:37:42;;;;;;;17.58;2.67;;;;;;;27.60;51.30;101536.47;4951472;28;20149;-67
2022/08/03 10:40:12;;;;;;;14.67;2.60;;;;;;;27.64;50.35;101531.97;4951982;28;20092;-67
2022/08/03 10:42:40;;;;;;;16.10;2.50;;;;;;;27.75;49.92;101538.66;4950678;28;20402;-66
2022/08/03 10:45:10;;;;;;;16.83;3.05;;;;;;;27.75;49.87;101532.53;4948964;29;20130;-67
2022/08/03 10:47:36;;;;;;;20.48;3.72;;;;;;;27.70;50.46;101531.81;4950727;28;20040;-66
2022/08/03 10:50:03;;;;;;;15.13;2.72;;;;;;;27.64;51.35;101527.53;4949054;28;20031;-67
2022/08/03 10:52:28;;;;;;;17.77;2.95;;;;;;;27.73;51.49;101522.00;4950179;28;20027;-66
2022/08/03 10:57:50;;;;;;;15.90;2.75;;;;;;;27.92;50.67;101513.47;4949451;28;20131;-66
2022/08/03 11:00:20;;;;;;;20.20;2.90;;;;;;;27.98;49.47;101515.91;4954590;28;20032;-66
2022/08/03 11:03:15;;;;;;;17.15;2.97;;;;;;;28.02;50.15;101510.44;4947635;28;20039;-66
2022/08/03 11:05:45;;;;;;;15.63;2.88;;;;;;;28.11;50.27;101514.56;4951088;28;20465;-66
2022/08/03 11:08:20;;;;;;;22.30;2.88;;;;;;;28.09;50.32;101508.47;4949436;28;20114;-67
2022/08/03 11:10:47;;;;;;;12.60;2.65;;;;;;;28.20;48.17;101511.56;4950433;28;20042;-66
2022/08/03 11:13:18;;;;;;;16.25;2.60;;;;;;;28.16;48.11;101502.03;4950882;28;20492;-65
2022/08/03 11:15:46;;;;;;;14.38;2.72;;;;;;;28.18;48.41;101497.56;4945918;28;20035;-66
2022/08/03 11:18:13;;;;;;;15.80;2.45;;;;;;;28.30;48.24;101501.53;4952337;28;20085;-66
2022/08/03 11:20:55;;;;;;;16.88;2.45;;;;;;;28.28;49.00;101492.81;4950851;28;20035;-66
2022/08/03 11:23:46;;;;;;;14.75;2.50;;;;;;;28.32;49.70;101497.94;4950429;28;20043;-66
2022/08/03 11:26:21;;;;;;;18.48;2.80;;;;;;;28.46;48.42;101496.63;4948124;28;20039;-67
2022/08/03 11:28:47;;;;;;;16.75;2.05;;;;;;;28.55;47.13;101491.81;4950153;28;20081;-66
2022/08/03 11:31:22;;;;;;;13.73;2.67;;;;;;;28.56;48.67;101503.28;4929121;28;20035;-66